createdAt,value
2023-04-15T00:00:00.743Z,6.70
2023-04-15T00:01:00.715Z,6.20
2023-04-15T00:02:00.803Z,6.50
2023-04-15T00:03:00.771Z,9.10
2023-04-15T00:04:00.784Z,6.40
2023-04-15T00:05:00.690Z,6.00
2023-04-15T00:06:00.649Z,5.40
2023-04-15T00:07:00.663Z,5.40
2023-04-15T00:08:00.657Z,7.40
2023-04-15T00:09:00.927Z,11.20
2023-04-15T00:10:00.652Z,5.50
2023-04-15T00:11:00.595Z,6.40
2023-04-15T00:12:00.683Z,6.50
2023-04-15T00:13:00.582Z,6.30
2023-04-15T00:14:00.596Z,6.30
2023-04-15T00:15:00.591Z,6.40
2023-04-15T00:16:00.564Z,7.60
2023-04-15T00:17:00.595Z,8.40
2023-04-15T00:18:00.712Z,9.00
2023-04-15T00:19:00.782Z,6.10
2023-04-15T00:20:00.564Z,7.10
2023-04-15T00:21:00.502Z,5.40
2023-04-15T00:22:00.498Z,6.50
2023-04-15T00:23:00.478Z,6.50
2023-04-15T00:24:00.470Z,5.20
2023-04-15T00:25:00.493Z,6.60
2023-04-15T00:26:00.472Z,7.90
2023-04-15T00:27:00.456Z,7.70
2023-04-15T00:28:00.448Z,6.40
2023-04-15T00:29:00.583Z,6.20
2023-04-15T00:30:00.499Z,7.10
2023-04-15T00:31:00.441Z,7.00
2023-04-15T00:32:00.726Z,7.10
2023-04-15T00:33:00.398Z,5.60
2023-04-15T00:34:00.455Z,6.30
2023-04-15T00:35:00.383Z,6.00
2023-04-15T00:36:00.352Z,5.80
2023-04-15T00:37:00.381Z,6.50
2023-04-15T00:38:00.332Z,5.60
2023-04-15T00:39:00.582Z,8.10
2023-04-15T00:40:00.421Z,6.30
2023-04-15T00:41:00.349Z,6.00
2023-04-15T00:42:00.313Z,11.50
2023-04-15T00:43:00.296Z,8.60
2023-04-15T00:44:00.286Z,6.60
2023-04-15T00:45:00.258Z,5.90
2023-04-15T00:46:00.377Z,6.10
2023-04-15T00:47:00.227Z,4.80
2023-04-15T00:48:00.395Z,5.50
2023-04-15T00:49:00.405Z,6.70
2023-04-15T00:50:00.207Z,5.40
2023-04-15T00:51:00.324Z,5.60
2023-04-15T00:52:00.204Z,5.30
2023-04-15T00:53:00.173Z,5.80
2023-04-15T00:54:00.204Z,7.00
2023-04-15T00:55:00.168Z,7.10
2023-04-15T00:56:00.192Z,8.10
2023-04-15T00:57:00.161Z,10.50
2023-04-15T00:58:00.235Z,10.00
2023-04-15T00:59:00.313Z,6.40
2023-04-15T01:00:00.153Z,6.00
2023-04-15T01:01:00.127Z,5.60
2023-04-15T01:02:00.236Z,5.50
2023-04-15T01:03:00.428Z,5.90
2023-04-15T01:04:00.233Z,5.20
2023-04-15T01:05:00.047Z,6.70
2023-04-15T01:06:02.128Z,10.00
2023-04-15T01:07:00.022Z,8.40
2023-04-15T01:08:00.042Z,6.60
2023-04-15T01:09:00.177Z,9.70
2023-04-15T01:10:00.049Z,7.90
2023-04-15T01:11:00.022Z,7.20
2023-04-15T01:11:59.984Z,5.80
2023-04-15T01:13:00.014Z,8.10
2023-04-15T01:13:59.975Z,7.80
2023-04-15T01:14:59.940Z,7.20
2023-04-15T01:16:00.028Z,6.70
2023-04-15T01:16:59.950Z,7.30
2023-04-15T01:17:59.952Z,8.40
2023-04-15T01:19:00.225Z,8.20
2023-04-15T01:19:59.931Z,7.90
2023-04-15T01:21:00.026Z,7.30
2023-04-15T01:21:59.876Z,6.00
2023-04-15T01:22:59.894Z,7.20
2023-04-15T01:23:59.883Z,8.50
2023-04-15T01:24:59.839Z,6.50
2023-04-15T01:26:00.060Z,5.70
2023-04-15T01:26:59.822Z,7.70
2023-04-15T01:27:59.810Z,9.70
2023-04-15T01:29:00.006Z,7.60
2023-04-15T01:29:59.791Z,5.80
2023-04-15T01:30:59.806Z,8.30
2023-04-15T01:31:59.782Z,6.90
2023-04-15T01:32:59.820Z,6.00
2023-04-15T01:33:59.793Z,8.60
2023-04-15T01:34:59.754Z,6.20
2023-04-15T01:35:59.760Z,6.20
2023-04-15T01:36:59.722Z,7.30
2023-04-15T01:37:59.718Z,6.40
2023-04-15T01:39:00.073Z,8.20
2023-04-15T01:39:59.733Z,5.50
2023-04-15T01:40:59.690Z,6.00
2023-04-15T01:41:59.669Z,6.40
2023-04-15T01:42:59.653Z,6.70
2023-04-15T01:43:59.648Z,5.10
2023-04-15T01:44:59.669Z,8.60
2023-04-15T01:45:59.668Z,5.70
2023-04-15T01:46:59.744Z,6.10
2023-04-15T01:47:59.666Z,8.00
2023-04-15T01:48:59.828Z,6.70
2023-04-15T01:49:59.611Z,6.60
2023-04-15T01:50:59.623Z,6.50
2023-04-15T01:51:59.646Z,5.80
2023-04-15T01:52:59.558Z,7.90
2023-04-15T01:53:59.547Z,7.30
2023-04-15T01:54:59.538Z,7.80
2023-04-15T01:55:59.626Z,7.00
2023-04-15T01:56:59.515Z,5.90
2023-04-15T01:57:59.517Z,7.40
2023-04-15T01:58:59.788Z,9.80
2023-04-15T01:59:59.491Z,8.10
2023-04-15T02:00:59.556Z,7.00
2023-04-15T02:01:59.557Z,7.50
2023-04-15T02:02:59.544Z,9.70
2023-04-15T02:03:59.536Z,7.40
2023-04-15T02:04:59.434Z,7.30
2023-04-15T02:05:59.460Z,5.60
2023-04-15T02:06:59.409Z,7.90
2023-04-15T02:07:59.413Z,6.70
2023-04-15T02:08:59.594Z,6.20
2023-04-15T02:09:59.388Z,7.00
2023-04-15T02:10:59.454Z,9.00
2023-04-15T02:11:59.511Z,6.30
2023-04-15T02:12:59.352Z,7.20
2023-04-15T02:13:59.346Z,7.30
2023-04-15T02:14:59.335Z,7.40
2023-04-15T02:15:59.349Z,8.20
2023-04-15T02:16:59.412Z,8.20
2023-04-15T02:17:59.365Z,6.10
2023-04-15T02:18:59.443Z,7.30
2023-04-15T02:19:59.286Z,8.80
2023-04-15T02:20:59.315Z,6.80
2023-04-15T02:21:59.261Z,7.40
2023-04-15T02:22:59.245Z,7.80
2023-04-15T02:23:59.236Z,6.60
2023-04-15T02:24:59.226Z,6.90
2023-04-15T02:25:59.242Z,6.20
2023-04-15T02:26:59.222Z,6.50
2023-04-15T02:27:59.222Z,8.50
2023-04-15T02:28:59.416Z,7.10
2023-04-15T02:29:59.189Z,7.30
2023-04-15T02:30:59.210Z,6.70
2023-04-15T02:31:59.199Z,6.80
2023-04-15T02:32:59.186Z,9.20
2023-04-15T02:33:59.153Z,6.60
2023-04-15T02:34:59.128Z,6.90
2023-04-15T02:35:59.159Z,8.20
2023-04-15T02:36:59.114Z,5.80
2023-04-15T02:39:26.801Z,8.80
2023-04-15T02:39:32.234Z,7.40
2023-04-15T02:40:32.215Z,7.50
2023-04-15T02:41:32.248Z,7.00
2023-04-15T02:42:32.204Z,7.60
2023-04-15T02:43:32.201Z,7.00
2023-04-15T02:44:32.192Z,9.20
2023-04-15T02:45:32.210Z,6.10
2023-04-15T02:46:32.351Z,6.90
2023-04-15T02:47:32.206Z,6.80
2023-04-15T02:48:32.140Z,7.70
2023-04-15T02:49:32.132Z,8.20
2023-04-15T02:50:32.137Z,7.70
2023-04-15T02:51:32.136Z,7.00
2023-04-15T02:52:32.116Z,9.10
2023-04-15T02:53:32.118Z,9.70
2023-04-15T02:54:32.075Z,6.60
2023-04-15T02:55:32.077Z,11.10
2023-04-15T02:56:32.075Z,7.20
2023-04-15T02:57:32.060Z,7.60
2023-04-15T02:58:32.060Z,6.40
2023-04-15T02:59:32.043Z,6.90
2023-04-15T03:00:32.008Z,8.50
2023-04-15T03:01:32.086Z,10.50
2023-04-15T03:02:32.082Z,9.40
2023-04-15T03:03:32.122Z,8.40
2023-04-15T03:04:32.013Z,7.90
2023-04-15T03:05:31.984Z,8.30
2023-04-15T03:06:31.988Z,9.10
2023-04-15T03:07:31.948Z,7.50
2023-04-15T03:08:31.940Z,8.10
2023-04-15T03:09:31.932Z,10.20
2023-04-15T03:10:31.922Z,9.80
2023-04-15T03:11:31.926Z,8.70
2023-04-15T03:12:31.894Z,8.10
2023-04-15T03:13:31.908Z,8.30
2023-04-15T03:14:31.868Z,8.20
2023-04-15T03:15:31.925Z,9.00
2023-04-15T03:16:31.878Z,8.40
2023-04-15T03:17:31.913Z,11.10
2023-04-15T03:18:31.830Z,10.10
2023-04-15T03:19:31.886Z,10.70
2023-04-15T03:20:31.849Z,10.20
2023-04-15T03:21:31.831Z,12.10
2023-04-15T03:22:31.802Z,11.40
2023-04-15T03:23:31.801Z,11.90
2023-04-15T03:24:31.779Z,10.20
2023-04-15T03:25:31.768Z,12.30
2023-04-15T03:26:31.791Z,11.00
2023-04-15T03:27:31.826Z,14.50
2023-04-15T03:28:31.853Z,13.20
2023-04-15T03:29:31.730Z,15.80
2023-04-15T03:30:31.727Z,15.90
2023-04-15T03:31:31.780Z,14.60
2023-04-15T03:32:31.784Z,13.50
2023-04-15T03:33:31.708Z,16.80
2023-04-15T03:34:31.753Z,15.80
2023-04-15T03:35:31.693Z,17.20
2023-04-15T03:36:31.678Z,16.70
2023-04-15T03:37:31.656Z,18.70
2023-04-15T03:38:31.649Z,19.70
2023-04-15T03:39:31.633Z,19.40
2023-04-15T03:40:31.640Z,18.50
2023-04-15T03:41:31.648Z,21.20
2023-04-15T03:42:31.600Z,22.80
2023-04-15T03:43:31.582Z,22.00
2023-04-15T03:44:31.575Z,22.30
2023-04-15T03:45:31.597Z,23.50
2023-04-15T03:46:31.590Z,25.30
2023-04-15T03:47:31.572Z,26.10
2023-04-15T03:48:31.537Z,30.90
2023-04-15T03:49:31.525Z,31.50
2023-04-15T03:50:31.522Z,29.20
2023-04-15T03:51:31.563Z,29.80
2023-04-15T03:52:31.490Z,36.00
2023-04-15T03:53:31.502Z,36.20
2023-04-15T03:54:31.471Z,38.30
2023-04-15T03:55:31.475Z,33.70
2023-04-15T03:56:31.476Z,37.40
2023-04-15T03:57:31.448Z,35.90
2023-04-15T03:58:31.425Z,35.40
2023-04-15T03:59:31.416Z,41.00
2023-04-15T04:00:31.403Z,37.70
2023-04-15T04:01:31.456Z,36.10
2023-04-15T04:02:31.467Z,39.50
2023-04-15T04:03:31.457Z,41.00
2023-04-15T04:04:31.444Z,38.50
2023-04-15T04:05:31.372Z,43.10
2023-04-15T04:06:31.372Z,38.30
2023-04-15T04:07:31.343Z,39.20
2023-04-15T04:08:31.336Z,36.90
2023-04-15T04:09:31.323Z,37.50
2023-04-15T04:10:31.315Z,36.10
2023-04-15T04:11:31.349Z,37.00
2023-04-15T04:12:31.296Z,34.30
2023-04-15T04:13:31.284Z,38.40
2023-04-15T04:14:31.263Z,37.20
2023-04-15T04:15:31.308Z,37.50
2023-04-15T04:16:31.311Z,37.20
2023-04-15T04:17:31.316Z,39.40
2023-04-15T04:18:31.250Z,35.90
2023-04-15T04:19:31.221Z,40.00
2023-04-15T04:20:31.205Z,43.30
2023-04-15T04:21:31.229Z,46.40
2023-04-15T04:22:31.184Z,46.20
2023-04-15T04:23:31.185Z,46.60
2023-04-15T04:24:31.181Z,47.30
2023-04-15T04:25:31.158Z,49.90
2023-04-15T04:26:31.183Z,45.10
2023-04-15T04:27:31.146Z,46.10
2023-04-15T04:28:31.124Z,46.70
2023-04-15T04:29:31.122Z,47.00
2023-04-15T04:30:31.115Z,45.80
2023-04-15T04:31:31.123Z,46.20
2023-04-15T04:32:31.112Z,48.40
2023-04-15T04:33:31.077Z,43.40
2023-04-15T04:34:31.068Z,43.80
2023-04-15T04:35:31.064Z,42.60
2023-04-15T04:36:31.078Z,44.10
2023-04-15T04:37:31.033Z,42.60
2023-04-15T04:38:31.031Z,42.30
2023-04-15T04:39:31.030Z,44.30
2023-04-15T04:40:31.000Z,43.40
2023-04-15T04:41:31.033Z,39.40
2023-04-15T04:42:30.983Z,40.60
2023-04-15T04:43:30.972Z,39.00
2023-04-15T04:44:30.957Z,39.10
2023-04-15T04:45:31.020Z,37.20
2023-04-15T04:46:30.975Z,40.60
2023-04-15T04:47:30.961Z,34.10
2023-04-15T04:48:31.011Z,28.50
2023-04-15T04:49:30.951Z,34.70
2023-04-15T04:50:30.921Z,32.90
2023-04-15T04:51:30.908Z,31.90
2023-04-15T04:52:30.874Z,31.00
2023-04-15T04:53:30.867Z,31.00
2023-04-15T04:54:30.857Z,31.80
2023-04-15T04:55:30.853Z,33.30
2023-04-15T04:56:30.868Z,27.60
2023-04-15T04:57:30.822Z,27.20
2023-04-15T04:58:30.828Z,23.60
2023-04-15T04:59:30.811Z,26.70
2023-04-15T05:00:30.796Z,32.40
2023-04-15T05:01:30.836Z,31.90
2023-04-15T05:02:30.879Z,26.60
2023-04-15T05:03:30.812Z,27.00
2023-04-15T05:04:30.759Z,23.20
2023-04-15T05:05:30.743Z,22.70
2023-04-15T05:06:30.753Z,21.50
2023-04-15T05:07:30.728Z,19.90
2023-04-15T05:08:30.733Z,20.20
2023-04-15T05:09:30.703Z,23.00
2023-04-15T05:10:30.710Z,23.70
2023-04-15T05:11:30.705Z,20.50
2023-04-15T05:12:30.681Z,18.00
2023-04-15T05:13:30.687Z,20.50
2023-04-15T05:14:30.659Z,20.50
2023-04-15T05:15:30.660Z,18.40
2023-04-15T05:16:30.674Z,20.20
2023-04-15T05:17:30.667Z,24.20
2023-04-15T05:18:30.629Z,17.90
2023-04-15T05:19:30.628Z,19.30
2023-04-15T05:20:30.602Z,21.00
2023-04-15T05:21:30.591Z,20.10
2023-04-15T05:22:30.584Z,18.50
2023-04-15T05:23:30.590Z,17.40
2023-04-15T05:24:30.558Z,16.70
2023-04-15T05:25:30.555Z,15.90
2023-04-15T05:26:30.563Z,16.30
2023-04-15T05:27:30.519Z,15.70
2023-04-15T05:28:30.516Z,14.20
2023-04-15T05:29:30.509Z,13.70
2023-04-15T05:30:30.542Z,16.30
2023-04-15T05:31:30.555Z,15.90
2023-04-15T05:32:30.508Z,16.20
2023-04-15T05:33:30.467Z,15.70
2023-04-15T05:34:30.467Z,15.80
2023-04-15T05:35:30.443Z,18.00
2023-04-15T05:36:30.462Z,17.80
2023-04-15T05:37:30.425Z,18.40
2023-04-15T05:38:30.419Z,18.40
2023-04-15T05:39:30.415Z,23.30
2023-04-15T05:40:30.408Z,17.80
2023-04-15T05:41:30.412Z,19.20
2023-04-15T05:42:30.383Z,14.70
2023-04-15T05:43:30.376Z,12.10
2023-04-15T05:44:30.370Z,12.70
2023-04-15T05:45:30.333Z,11.20
2023-04-15T05:46:30.408Z,10.00
2023-04-15T05:47:30.334Z,11.80
2023-04-15T05:48:30.312Z,10.40
2023-04-15T05:49:30.307Z,11.40
2023-04-15T05:50:30.303Z,12.00
2023-04-15T05:51:30.322Z,11.50
2023-04-15T05:52:30.272Z,10.40
2023-04-15T05:53:30.258Z,9.80
2023-04-15T05:54:30.267Z,12.20
2023-04-15T05:55:30.258Z,11.90
2023-04-15T05:56:30.254Z,10.00
2023-04-15T05:57:30.223Z,11.40
2023-04-15T05:58:30.229Z,8.90
2023-04-15T05:59:30.279Z,9.90
2023-04-15T06:00:30.230Z,9.00
2023-04-15T06:01:30.218Z,11.80
2023-04-15T06:02:30.247Z,11.70
2023-04-15T06:03:30.264Z,9.30
2023-04-15T06:04:30.356Z,9.00
2023-04-15T06:05:30.172Z,9.60
2023-04-15T06:06:30.152Z,10.40
2023-04-15T06:07:30.122Z,11.30
2023-04-15T06:08:30.118Z,8.80
2023-04-15T06:09:30.117Z,12.60
2023-04-15T06:10:30.102Z,10.50
2023-04-15T06:11:30.102Z,11.40
2023-04-15T06:12:30.073Z,9.30
2023-04-15T06:13:30.061Z,9.80
2023-04-15T06:14:30.062Z,10.40
2023-04-15T06:15:30.046Z,9.90
2023-04-15T06:16:30.123Z,11.50
2023-04-15T06:17:30.049Z,11.60
2023-04-15T06:18:30.010Z,9.90
2023-04-15T06:19:29.994Z,9.30
2023-04-15T06:20:29.994Z,10.80
2023-04-15T06:21:29.989Z,10.70
2023-04-15T06:22:29.962Z,10.30
2023-04-15T06:23:29.962Z,8.40
2023-04-15T06:24:29.976Z,9.20
2023-04-15T06:25:29.986Z,10.70
2023-04-15T06:26:29.932Z,9.40
2023-04-15T06:27:29.928Z,11.50
2023-04-15T06:28:29.929Z,11.90
2023-04-15T06:29:29.891Z,10.60
2023-04-15T06:30:29.915Z,10.30
2023-04-15T06:31:29.922Z,11.50
2023-04-15T06:32:29.882Z,9.00
2023-04-15T06:33:29.882Z,9.10
2023-04-15T06:34:29.853Z,12.60
2023-04-15T06:35:29.893Z,11.50
2023-04-15T06:36:29.824Z,10.50
2023-04-15T06:37:29.815Z,11.20
2023-04-15T06:38:29.817Z,12.90
2023-04-15T06:39:29.785Z,12.70
2023-04-15T06:40:29.812Z,10.90
2023-04-15T06:41:29.773Z,12.90
2023-04-15T06:42:29.757Z,12.50
2023-04-15T06:43:29.745Z,10.30
2023-04-15T06:44:30.792Z,10.50
2023-04-15T06:45:29.805Z,10.00
2023-04-15T06:46:29.727Z,13.30
2023-04-15T06:47:29.700Z,11.60
2023-04-15T06:48:29.703Z,13.40
2023-04-15T06:49:29.680Z,14.60
2023-04-15T06:50:29.711Z,10.50
2023-04-15T06:51:29.663Z,10.70
2023-04-15T06:52:29.653Z,13.80
2023-04-15T06:53:29.640Z,11.90
2023-04-15T06:54:29.666Z,11.20
2023-04-15T06:55:29.662Z,11.10
2023-04-15T06:56:29.619Z,11.40
2023-04-15T06:57:29.598Z,9.80
2023-04-15T06:58:29.625Z,10.70
2023-04-15T06:59:29.574Z,11.40
2023-04-15T07:00:29.611Z,10.60
2023-04-15T07:01:29.648Z,11.80
2023-04-15T07:02:29.702Z,10.50
2023-04-15T07:03:32.067Z,10.60
2023-04-15T07:04:29.589Z,9.40
2023-04-15T07:05:29.541Z,9.70
2023-04-15T07:06:29.520Z,9.40
2023-04-15T07:07:29.505Z,9.40
2023-04-15T07:08:29.489Z,8.50
2023-04-15T07:09:29.492Z,8.40
2023-04-15T07:10:29.487Z,10.20
2023-04-15T07:11:29.461Z,7.60
2023-04-15T07:12:29.458Z,7.80
2023-04-15T07:13:29.472Z,8.90
2023-04-15T07:14:29.477Z,9.40
2023-04-15T07:15:29.435Z,10.00
2023-04-15T07:16:30.031Z,7.00
2023-04-15T07:17:29.429Z,10.70
2023-04-15T07:18:29.411Z,8.00
2023-04-15T07:19:29.381Z,8.00
2023-04-15T07:20:29.392Z,7.10
2023-04-15T07:21:29.351Z,8.20
2023-04-15T07:22:29.361Z,8.90
2023-04-15T07:23:29.335Z,8.30
2023-04-15T07:24:29.322Z,9.30
2023-04-15T07:25:29.347Z,9.90
2023-04-15T07:26:29.312Z,14.80
2023-04-15T07:27:29.299Z,9.20
2023-04-15T07:28:29.330Z,13.50
2023-04-15T07:29:29.277Z,9.50
2023-04-15T07:30:29.293Z,9.80
2023-04-15T07:31:29.389Z,10.30
2023-04-15T07:32:29.276Z,8.70
2023-04-15T07:33:29.229Z,11.90
2023-04-15T07:34:30.734Z,10.10
2023-04-15T07:35:29.236Z,8.50
2023-04-15T07:36:29.197Z,10.50
2023-04-15T07:37:29.196Z,10.20
2023-04-15T07:38:29.184Z,9.60
2023-04-15T07:39:29.167Z,10.10
2023-04-15T07:40:29.196Z,11.10
2023-04-15T07:41:29.146Z,9.80
2023-04-15T07:42:29.146Z,8.20
2023-04-15T07:43:29.144Z,11.80
2023-04-15T07:44:29.130Z,9.70
2023-04-15T07:45:29.146Z,12.50
2023-04-15T07:46:29.109Z,9.50
2023-04-15T07:47:29.171Z,9.00
2023-04-15T07:48:29.087Z,8.40
2023-04-15T07:49:29.070Z,10.20
2023-04-15T07:50:29.084Z,9.40
2023-04-15T07:51:29.052Z,7.20
2023-04-15T07:52:29.040Z,9.20
2023-04-15T07:53:29.032Z,10.30
2023-04-15T07:54:29.022Z,9.80
2023-04-15T07:55:29.029Z,10.90
2023-04-15T07:56:29.009Z,8.60
2023-04-15T07:57:28.996Z,7.70
2023-04-15T07:58:28.986Z,8.70
2023-04-15T07:59:28.976Z,9.20
2023-04-15T08:00:28.990Z,9.20
2023-04-15T08:01:28.949Z,11.50
2023-04-15T08:02:29.068Z,10.10
2023-04-15T08:03:29.052Z,9.70
2023-04-15T08:04:29.052Z,6.50
2023-04-15T08:05:28.958Z,7.90
2023-04-15T08:06:28.914Z,8.50
2023-04-15T08:07:28.884Z,9.00
2023-04-15T08:08:28.892Z,10.30
2023-04-15T08:09:28.866Z,8.70
2023-04-15T08:10:28.898Z,9.00
2023-04-15T08:11:28.858Z,8.80
2023-04-15T08:12:28.855Z,11.00
2023-04-15T08:13:28.833Z,12.30
2023-04-15T08:14:28.851Z,8.90
2023-04-15T08:15:28.833Z,9.80
2023-04-15T08:16:28.846Z,8.20
2023-04-15T08:17:28.807Z,8.80
2023-04-15T08:18:28.781Z,9.80
2023-04-15T08:19:28.773Z,11.00
2023-04-15T08:20:28.782Z,10.20
2023-04-15T08:21:28.750Z,10.30
2023-04-15T08:22:28.791Z,9.00
2023-04-15T08:23:28.725Z,9.80
2023-04-15T08:24:28.788Z,7.50
2023-04-15T08:25:28.747Z,10.50
2023-04-15T08:26:28.704Z,8.00
2023-04-15T08:27:28.689Z,7.20
2023-04-15T08:28:28.698Z,10.10
2023-04-15T08:29:28.665Z,9.50
2023-04-15T08:30:28.688Z,10.00
2023-04-15T08:31:28.672Z,9.50
2023-04-15T08:32:28.700Z,8.60
2023-04-15T08:33:28.628Z,9.00
2023-04-15T08:34:28.614Z,7.30
2023-04-15T08:35:28.670Z,8.20
2023-04-15T08:36:28.601Z,10.10
2023-04-15T08:37:28.590Z,10.40
2023-04-15T08:38:28.579Z,7.60
2023-04-15T08:39:28.564Z,6.60
2023-04-15T08:40:28.592Z,8.40
2023-04-15T08:41:28.542Z,11.50
2023-04-15T08:42:28.530Z,10.20
2023-04-15T08:43:28.532Z,9.80
2023-04-15T08:44:28.518Z,7.40
2023-04-15T08:45:28.533Z,11.10
2023-04-15T08:46:28.509Z,8.80
2023-04-15T08:47:28.547Z,10.90
2023-04-15T08:48:28.473Z,10.50
2023-04-15T08:49:28.516Z,7.30
2023-04-15T08:50:28.488Z,8.50
2023-04-15T08:51:28.449Z,7.60
2023-04-15T08:52:28.428Z,8.70
2023-04-15T08:53:28.423Z,8.60
2023-04-15T08:54:28.421Z,9.60
2023-04-15T08:55:28.490Z,9.30
2023-04-15T08:56:28.411Z,8.10
2023-04-15T08:57:28.391Z,7.20
2023-04-15T08:58:28.376Z,10.30
2023-04-15T08:59:28.370Z,8.20
2023-04-15T09:00:28.373Z,9.10
2023-04-15T09:01:28.395Z,7.60
2023-04-15T09:02:28.406Z,7.30
2023-04-15T09:03:28.389Z,7.90
2023-04-15T09:04:28.316Z,7.20
2023-04-15T09:05:28.345Z,6.40
2023-04-15T09:06:28.296Z,8.30
2023-04-15T09:07:28.300Z,7.20
2023-04-15T09:08:28.280Z,9.10
2023-04-15T09:09:28.331Z,8.80
2023-04-15T09:10:28.286Z,9.00
2023-04-15T09:11:28.252Z,10.10
2023-04-15T09:12:28.307Z,7.90
2023-04-15T09:13:28.229Z,6.50
2023-04-15T09:14:28.218Z,8.40
2023-04-15T09:15:28.258Z,10.20
2023-04-15T09:16:28.215Z,6.40
2023-04-15T09:17:28.221Z,6.40
2023-04-15T09:18:28.180Z,9.60
2023-04-15T09:19:28.171Z,6.20
2023-04-15T09:20:28.198Z,8.00
2023-04-15T09:21:28.168Z,10.70
2023-04-15T09:22:28.171Z,8.60
2023-04-15T09:23:28.126Z,9.50
2023-04-15T09:24:28.155Z,8.60
2023-04-15T09:25:28.144Z,8.10
2023-04-15T09:26:28.106Z,7.80
2023-04-15T09:27:28.104Z,7.10
2023-04-15T09:28:28.072Z,6.40
2023-04-15T09:29:28.084Z,6.90
2023-04-15T09:30:28.080Z,8.60
2023-04-15T09:31:28.085Z,9.00
2023-04-15T09:32:28.054Z,8.30
2023-04-15T09:33:28.017Z,7.40
2023-04-15T09:34:28.008Z,6.50
2023-04-15T09:35:28.340Z,6.00
2023-04-15T09:36:28.001Z,6.40
2023-04-15T09:37:32.427Z,11.10
2023-04-15T09:38:27.980Z,12.70
2023-04-15T09:39:27.993Z,6.80
2023-04-15T09:40:27.991Z,6.90
2023-04-15T09:41:27.939Z,9.00
2023-04-15T09:42:27.932Z,6.20
2023-04-15T09:43:27.923Z,6.70
2023-04-15T09:44:28.071Z,7.10
2023-04-15T09:45:29.680Z,8.70
2023-04-15T09:46:28.016Z,8.10
2023-04-15T09:47:27.911Z,7.20
2023-04-15T09:48:27.865Z,8.80
2023-04-15T09:49:27.897Z,5.50
2023-04-15T09:50:27.875Z,6.50
2023-04-15T09:51:27.881Z,8.70
2023-04-15T09:52:27.823Z,6.90
2023-04-15T09:53:29.350Z,8.00
2023-04-15T09:54:27.820Z,8.00
2023-04-15T09:55:27.875Z,7.00
2023-04-15T09:56:27.770Z,10.10
2023-04-15T09:57:27.805Z,9.70
2023-04-15T09:58:27.815Z,8.00
2023-04-15T09:59:27.777Z,7.30
2023-04-15T10:00:27.783Z,5.70
2023-04-15T10:01:27.769Z,5.80
2023-04-15T10:02:27.815Z,7.60
2023-04-15T10:03:27.793Z,7.90
2023-04-15T10:04:27.841Z,9.70
2023-04-15T10:05:28.312Z,10.80
2023-04-15T10:06:27.699Z,7.40
2023-04-15T10:07:27.676Z,9.20
2023-04-15T10:08:27.675Z,7.60
2023-04-15T10:09:27.737Z,5.90
2023-04-15T10:10:27.684Z,8.20
2023-04-15T10:11:28.668Z,7.00
2023-04-15T10:12:27.617Z,7.30
2023-04-15T10:13:27.613Z,5.90
2023-04-15T10:14:27.584Z,6.30
2023-04-15T10:15:27.612Z,8.00
2023-04-15T10:16:27.652Z,6.00
2023-04-15T10:17:28.134Z,11.60
2023-04-15T10:18:27.571Z,6.00
2023-04-15T10:19:27.636Z,6.00
2023-04-15T10:20:27.525Z,7.10
2023-04-15T10:21:27.588Z,7.30
2023-04-15T10:22:27.530Z,7.80
2023-04-15T10:23:27.560Z,6.90
2023-04-15T10:24:27.527Z,13.60
2023-04-15T10:25:27.490Z,6.20
2023-04-15T10:26:28.157Z,5.70
2023-04-15T10:27:27.462Z,7.90
2023-04-15T10:28:27.452Z,8.00
2023-04-15T10:29:27.474Z,10.10
2023-04-15T10:30:27.479Z,6.50
2023-04-15T10:31:27.452Z,7.80
2023-04-15T10:32:27.415Z,6.50
2023-04-15T10:33:27.545Z,6.40
2023-04-15T10:34:27.483Z,6.00
2023-04-15T10:35:27.402Z,6.40
2023-04-15T10:36:27.397Z,6.60
2023-04-15T10:37:27.870Z,6.80
2023-04-15T10:38:27.341Z,5.90
2023-04-15T10:39:27.497Z,7.90
2023-04-15T10:40:27.512Z,7.10
2023-04-15T10:41:27.327Z,6.30
2023-04-15T10:42:27.365Z,8.00
2023-04-15T10:43:27.364Z,7.20
2023-04-15T10:44:27.301Z,6.40
2023-04-15T10:45:27.349Z,8.10
2023-04-15T10:46:27.303Z,6.30
2023-04-15T10:47:27.281Z,8.20
2023-04-15T10:48:27.227Z,7.80
2023-04-15T10:49:27.217Z,5.30
2023-04-15T10:50:27.289Z,6.10
2023-04-15T10:51:27.204Z,5.10
2023-04-15T10:52:27.250Z,11.70
2023-04-15T10:53:27.244Z,15.20
2023-04-15T10:54:27.169Z,8.30
2023-04-15T10:55:27.232Z,7.40
2023-04-15T10:56:27.153Z,6.10
2023-04-15T10:57:27.198Z,7.50
2023-04-15T10:58:27.229Z,5.80
2023-04-15T10:59:27.128Z,5.20
2023-04-15T11:00:27.203Z,6.80
2023-04-15T11:01:27.226Z,7.00
2023-04-15T11:02:27.287Z,5.00
2023-04-15T11:03:27.313Z,5.20
2023-04-15T11:04:27.177Z,4.20
2023-04-15T11:05:27.099Z,5.40
2023-04-15T11:06:27.068Z,6.70
2023-04-15T11:07:27.042Z,5.90
2023-04-15T11:08:27.070Z,6.00
2023-04-15T11:09:27.022Z,7.40
2023-04-15T11:10:27.057Z,4.90
2023-04-15T11:11:27.005Z,6.10
2023-04-15T11:12:26.987Z,5.30
2023-04-15T11:13:27.001Z,5.30
2023-04-15T11:14:26.977Z,4.30
2023-04-15T11:15:27.029Z,4.60
2023-04-15T11:16:26.993Z,5.20
2023-04-15T11:17:26.988Z,5.60
2023-04-15T11:18:26.942Z,3.40
2023-04-15T11:19:26.932Z,7.20
2023-04-15T11:20:26.954Z,3.90
2023-04-15T11:21:26.890Z,4.60
2023-04-15T11:22:26.877Z,5.10
2023-04-15T11:23:26.879Z,6.40
2023-04-15T11:24:26.850Z,5.20
2023-04-15T11:25:26.893Z,7.80
2023-04-15T11:26:26.918Z,5.30
2023-04-15T11:27:26.907Z,5.20
2023-04-15T11:28:26.808Z,5.50
2023-04-15T11:29:26.814Z,5.20
2023-04-15T11:30:26.834Z,5.50
2023-04-15T11:31:26.819Z,4.30
2023-04-15T11:32:26.776Z,6.60
2023-04-15T11:33:26.760Z,5.40
2023-04-15T11:34:26.934Z,3.70
2023-04-15T11:35:26.796Z,5.80
2023-04-15T11:36:26.721Z,6.60
2023-04-15T11:37:26.762Z,6.00
2023-04-15T11:38:26.860Z,4.40
2023-04-15T11:39:26.761Z,4.90
2023-04-15T11:40:26.981Z,4.10
2023-04-15T11:41:26.683Z,4.30
2023-04-15T11:42:31.567Z,6.00
2023-04-15T11:43:26.656Z,4.70
2023-04-15T11:44:26.644Z,6.40
2023-04-15T11:45:26.685Z,6.50
2023-04-15T11:46:26.631Z,4.90
2023-04-15T11:47:26.648Z,12.60
2023-04-15T11:48:26.703Z,17.60
2023-04-15T11:49:26.597Z,9.20
2023-04-15T11:50:26.615Z,5.60
2023-04-15T11:51:26.589Z,4.30
2023-04-15T11:52:26.577Z,4.40
2023-04-15T11:53:26.585Z,4.70
2023-04-15T11:54:26.628Z,5.30
2023-04-15T11:55:26.586Z,5.10
2023-04-15T11:56:26.529Z,4.10
2023-04-15T11:57:26.514Z,5.70
2023-04-15T11:58:26.512Z,4.90
2023-04-15T11:59:35.664Z,5.30
2023-04-15T12:00:26.509Z,4.60
2023-04-15T12:01:26.476Z,5.50
2023-04-15T12:02:26.538Z,4.10
2023-04-15T12:03:26.673Z,5.60
2023-04-15T12:04:26.727Z,4.30
2023-04-15T12:05:26.479Z,3.70
2023-04-15T12:06:26.431Z,6.30
2023-04-15T12:07:26.487Z,4.50
2023-04-15T12:08:26.403Z,6.20
2023-04-15T12:09:26.497Z,4.80
2023-04-15T12:10:26.387Z,3.50
2023-04-15T12:11:26.367Z,3.50
2023-04-15T12:12:26.366Z,4.80
2023-04-15T12:13:26.358Z,4.20
2023-04-15T12:14:26.359Z,5.50
2023-04-15T12:15:26.359Z,5.70
2023-04-15T12:16:26.354Z,4.10
2023-04-15T12:17:26.400Z,5.00
2023-04-15T12:18:26.313Z,3.10
2023-04-15T12:19:26.337Z,4.50
2023-04-15T12:20:26.363Z,3.60
2023-04-15T12:21:26.281Z,2.60
2023-04-15T12:22:26.293Z,3.80
2023-04-15T12:23:26.250Z,4.00
2023-04-15T12:24:26.255Z,4.00
2023-04-15T12:25:26.260Z,3.70
2023-04-15T12:26:26.217Z,5.20
2023-04-15T12:27:27.649Z,4.60
2023-04-15T12:28:26.219Z,4.20
2023-04-15T12:29:26.231Z,5.10
2023-04-15T12:30:26.296Z,3.80
2023-04-15T12:31:26.200Z,7.60
2023-04-15T12:32:26.208Z,4.10
2023-04-15T12:33:26.159Z,5.80
2023-04-15T12:34:26.187Z,4.00
2023-04-15T12:35:26.155Z,6.00
2023-04-15T12:36:26.153Z,3.90
2023-04-15T12:37:26.140Z,4.80
2023-04-15T12:38:26.153Z,5.20
2023-04-15T12:39:26.849Z,7.00
2023-04-15T12:40:26.106Z,3.70
2023-04-15T12:41:26.070Z,3.70
2023-04-15T12:42:26.075Z,3.10
2023-04-15T12:43:26.051Z,6.00
2023-04-15T12:44:26.049Z,3.00
2023-04-15T12:45:26.447Z,3.20
2023-04-15T12:46:26.086Z,2.80
2023-04-15T12:47:26.021Z,4.10
2023-04-15T12:48:26.010Z,3.50
2023-04-15T12:49:25.996Z,4.70
2023-04-15T12:50:25.997Z,3.50
2023-04-15T12:51:25.998Z,3.10
2023-04-15T12:52:25.998Z,3.40
2023-04-15T12:53:25.951Z,4.50
2023-04-15T12:54:25.925Z,7.00
2023-04-15T12:55:25.970Z,3.40
2023-04-15T12:56:25.919Z,4.60
2023-04-15T12:57:25.912Z,3.00
2023-04-15T12:58:25.922Z,3.30
2023-04-15T12:59:25.910Z,3.10
2023-04-15T13:00:25.901Z,2.60
2023-04-15T13:01:25.875Z,2.30
2023-04-15T13:02:26.030Z,5.10
2023-04-15T13:03:25.946Z,3.90
2023-04-15T13:04:25.887Z,3.00
2023-04-15T13:05:25.867Z,3.00
2023-04-15T13:06:25.836Z,4.10
2023-04-15T13:07:25.796Z,4.30
2023-04-15T13:08:25.801Z,4.30
2023-04-15T13:09:25.891Z,4.00